createdAt,value
2019-03-12T00:00:22.362Z,9.47
2019-03-12T00:02:51.785Z,8.83
2019-03-12T00:05:21.286Z,7.53
2019-03-12T00:07:50.825Z,10.27
2019-03-12T00:10:20.227Z,8.57
2019-03-12T00:12:49.656Z,10.33
2019-03-12T00:15:19.201Z,6.40
2019-03-12T00:17:48.695Z,8.20
2019-03-12T00:20:18.110Z,10.70
2019-03-12T00:22:47.563Z,8.13
2019-03-12T00:25:16.984Z,7.80
2019-03-12T00:27:46.460Z,7.83
2019-03-12T00:30:17.016Z,6.17
2019-03-12T00:32:46.429Z,7.37
2019-03-12T00:35:15.903Z,9.40
2019-03-12T00:37:45.519Z,9.23
2019-03-12T00:40:15.126Z,7.83
2019-03-12T00:42:44.622Z,8.23
2019-03-12T00:45:14.475Z,8.40
2019-03-12T00:47:43.968Z,16.03
2019-03-12T00:50:14.742Z,15.47
2019-03-12T00:52:44.276Z,7.27
2019-03-12T00:55:13.971Z,10.17
2019-03-12T00:57:43.392Z,18.07
2019-03-12T01:00:14.746Z,10.70
2019-03-12T01:02:44.236Z,8.70
2019-03-12T01:05:13.759Z,11.70
2019-03-12T01:07:43.307Z,10.17
2019-03-12T01:10:14.517Z,10.97
2019-03-12T01:12:44.111Z,12.77
2019-03-12T01:15:14.141Z,10.23
2019-03-12T01:17:43.639Z,11.50
2019-03-12T01:20:13.580Z,12.87
2019-03-12T01:22:43.192Z,12.10
2019-03-12T01:25:12.826Z,13.67
2019-03-12T01:27:42.335Z,7.37
2019-03-12T01:30:14.467Z,8.83
2019-03-12T01:32:43.958Z,14.67
2019-03-12T01:35:13.574Z,11.63
2019-03-12T01:37:43.035Z,9.57
2019-03-12T01:40:13.631Z,8.53
2019-03-12T01:42:43.123Z,10.47
2019-03-12T01:45:14.031Z,5.07
2019-03-12T01:47:43.437Z,8.13
2019-03-12T01:50:13.117Z,7.60
2019-03-12T01:52:43.819Z,8.57
2019-03-12T01:55:13.396Z,6.63
2019-03-12T01:57:42.896Z,4.23
2019-03-12T02:00:14.940Z,12.07
2019-03-12T02:02:44.405Z,4.57
2019-03-12T02:05:14.230Z,7.37
2019-03-12T02:07:43.944Z,25.67
2019-03-12T02:10:13.479Z,20.53
2019-03-12T02:12:42.907Z,12.47
2019-03-12T02:15:12.827Z,5.37
2019-03-12T02:17:42.308Z,6.40
2019-03-12T02:20:15.708Z,8.63
2019-03-12T02:22:45.157Z,6.83
2019-03-12T02:25:16.573Z,7.27
2019-03-12T02:27:46.071Z,6.93
2019-03-12T02:30:16.843Z,4.70
2019-03-12T02:32:46.269Z,4.33
2019-03-12T02:35:16.067Z,5.03
2019-03-12T02:37:45.524Z,4.30
2019-03-12T02:40:16.025Z,4.77
2019-03-12T02:42:45.458Z,5.50
2019-03-12T02:45:15.490Z,7.77
2019-03-12T02:47:44.933Z,5.67
2019-03-12T02:50:14.553Z,3.73
2019-03-12T02:52:44.356Z,4.60
2019-03-12T02:55:14.251Z,7.27
2019-03-12T02:57:43.697Z,3.67
2019-03-12T03:00:20.741Z,5.50
2019-03-12T03:02:50.473Z,8.10
2019-03-12T03:05:19.936Z,6.13
2019-03-12T03:08:01.286Z,6.00
2019-03-12T03:10:30.920Z,6.43
2019-03-12T03:13:00.484Z,4.70
2019-03-12T03:15:35.743Z,3.27
2019-03-12T03:18:05.258Z,5.90
2019-03-12T03:20:34.608Z,6.13
2019-03-12T03:23:04.160Z,5.07
2019-03-12T03:25:33.665Z,9.60
2019-03-12T03:28:03.152Z,12.53
2019-03-12T03:30:32.713Z,10.60
2019-03-12T03:33:02.231Z,4.30
2019-03-12T03:35:31.714Z,4.60
2019-03-12T03:38:01.226Z,3.10
2019-03-12T03:40:30.731Z,5.03
2019-03-12T03:43:00.282Z,2.37
2019-03-12T03:45:29.836Z,2.03
2019-03-12T03:47:59.334Z,4.30
2019-03-12T03:50:28.871Z,7.03
2019-03-12T03:52:58.490Z,3.17
2019-03-12T03:55:27.986Z,4.50
2019-03-12T03:57:57.398Z,2.43
2019-03-12T04:00:27.103Z,1.70
2019-03-12T04:02:56.617Z,2.00
2019-03-12T04:05:25.995Z,3.53
2019-03-12T04:07:55.593Z,1.60
2019-03-12T04:10:25.103Z,2.20
2019-03-12T04:12:56.160Z,5.10
2019-03-12T04:15:25.981Z,7.63
2019-03-12T04:17:55.634Z,2.53
2019-03-12T04:20:25.206Z,1.87
2019-03-12T04:22:54.948Z,6.40
2019-03-12T04:25:24.405Z,1.40
2019-03-12T04:27:53.817Z,3.53
2019-03-12T04:30:23.394Z,5.07
2019-03-12T04:32:52.880Z,2.27
2019-03-12T04:35:22.923Z,4.33
2019-03-12T04:37:52.476Z,5.23
2019-03-12T04:40:21.909Z,4.47
2019-03-12T04:42:51.535Z,4.47
2019-03-12T04:45:21.086Z,2.10
2019-03-12T04:47:50.566Z,3.47
2019-03-12T04:50:20.054Z,2.57
2019-03-12T04:52:50.769Z,1.60
2019-03-12T04:55:20.319Z,5.73
2019-03-12T04:57:49.761Z,5.23
2019-03-12T05:00:19.358Z,10.03
2019-03-12T05:02:48.821Z,3.00
2019-03-12T05:05:18.445Z,1.50
2019-03-12T05:07:48.154Z,2.03
2019-03-12T05:10:17.580Z,4.67
2019-03-12T05:12:47.039Z,6.00
2019-03-12T05:15:16.579Z,5.57
2019-03-12T05:17:46.202Z,3.87
2019-03-12T05:20:16.461Z,5.60
2019-03-12T05:22:46.239Z,2.33
2019-03-12T05:25:15.759Z,2.57
2019-03-12T05:27:45.346Z,6.20
2019-03-12T05:30:16.616Z,4.93
2019-03-12T05:32:46.436Z,2.53
2019-03-12T05:35:15.861Z,2.13
2019-03-12T05:37:45.477Z,15.70
2019-03-12T05:40:15.183Z,1.40
2019-03-12T05:42:45.109Z,2.33
2019-03-12T05:45:14.737Z,8.70
2019-03-12T05:47:44.182Z,4.00
2019-03-12T05:50:13.994Z,2.57
2019-03-12T05:52:43.773Z,1.77
2019-03-12T05:55:14.453Z,3.33
2019-03-12T05:57:44.007Z,3.77
2019-03-12T06:00:14.917Z,5.73
2019-03-12T06:02:44.719Z,5.80
2019-03-12T06:05:14.316Z,6.53
2019-03-12T06:07:43.790Z,3.33
2019-03-12T06:10:13.712Z,4.83
2019-03-12T06:12:43.167Z,7.23
2019-03-12T06:15:13.386Z,4.50
2019-03-12T06:17:42.905Z,1.83
2019-03-12T06:20:12.537Z,4.17
2019-03-12T06:22:42.406Z,6.83
2019-03-12T06:25:12.622Z,10.40
2019-03-12T06:27:42.531Z,8.90
2019-03-12T06:30:12.689Z,6.23
2019-03-12T06:32:51.673Z,4.70
2019-03-12T06:35:39.103Z,4.93
2019-03-12T06:38:16.050Z,11.90
2019-03-12T06:40:56.767Z,19.63
2019-03-12T06:43:44.833Z,4.83
2019-03-12T06:46:30.481Z,2.93
2019-03-12T06:49:19.082Z,4.57
2019-03-12T06:52:19.664Z,6.33
2019-03-12T06:55:08.038Z,5.20
2019-03-12T06:58:16.888Z,1.97
2019-03-12T07:00:56.238Z,1.77
2019-03-12T07:03:48.277Z,5.63
2019-03-12T07:06:39.396Z,5.70
2019-03-12T07:09:37.480Z,5.97
2019-03-12T07:12:15.429Z,4.23
2019-03-12T07:14:53.796Z,5.50
2019-03-12T07:17:45.794Z,5.43
2019-03-12T07:20:25.604Z,2.03
2019-03-12T07:23:17.134Z,7.20
2019-03-12T07:26:00.021Z,2.73
2019-03-12T07:28:50.054Z,2.37
2019-03-12T07:31:46.714Z,8.40
2019-03-12T07:34:36.991Z,4.90
2019-03-12T07:37:21.241Z,2.70
2019-03-12T07:40:12.829Z,2.70
2019-03-12T07:42:52.116Z,4.87
2019-03-12T07:45:49.538Z,3.83
2019-03-12T07:48:44.227Z,1.40
2019-03-12T07:51:32.598Z,4.83
2019-03-12T07:54:32.216Z,1.50
2019-03-12T07:57:19.613Z,1.83
2019-03-12T08:03:28.190Z,2.00
2019-03-12T08:06:32.090Z,3.77
2019-03-12T08:09:29.664Z,1.83
2019-03-12T08:12:36.271Z,3.57
2019-03-12T08:15:32.396Z,4.03
2019-03-12T08:18:30.048Z,4.90
2019-03-12T08:21:30.420Z,4.47
2019-03-12T08:24:15.164Z,2.33
2019-03-12T08:27:03.586Z,4.30
2019-03-12T08:29:58.213Z,5.57
2019-03-12T08:32:39.234Z,5.43
2019-03-12T08:35:25.285Z,5.30
2019-03-12T08:38:08.959Z,3.00
2019-03-12T08:40:52.427Z,4.33
2019-03-12T08:43:42.490Z,7.53
2019-03-12T08:46:46.309Z,2.57
2019-03-12T08:49:34.872Z,4.67
2019-03-12T08:52:32.216Z,2.23
2019-03-12T08:55:14.726Z,4.07
2019-03-12T08:58:03.808Z,6.40
2019-03-12T09:00:57.781Z,2.23
2019-03-12T09:04:04.358Z,9.73
2019-03-12T09:06:51.556Z,2.67
2019-03-12T09:09:27.018Z,4.10
2019-03-12T09:12:01.632Z,3.57
2019-03-12T09:14:56.280Z,3.97
2019-03-12T09:17:39.048Z,5.80
2019-03-12T09:20:18.703Z,4.63
2019-03-12T09:23:10.215Z,5.37
2019-03-12T09:25:45.561Z,4.17
2019-03-12T09:28:24.481Z,3.67
2019-03-12T09:31:00.694Z,5.60
2019-03-12T09:33:52.190Z,6.53
2019-03-12T09:36:33.353Z,8.93
2019-03-12T09:39:21.815Z,4.90
2019-03-12T09:42:11.510Z,3.27
2019-03-12T09:45:12.214Z,5.43
2019-03-12T09:48:12.948Z,3.30
2019-03-12T09:51:10.535Z,2.83
2019-03-12T09:53:46.411Z,4.50
2019-03-12T09:56:36.100Z,5.20
2019-03-12T09:59:14.376Z,4.33
2019-03-12T10:02:02.753Z,3.97
2019-03-12T10:04:40.508Z,4.13
2019-03-12T10:07:24.540Z,2.43
2019-03-12T10:10:18.632Z,2.63
2019-03-12T10:13:06.051Z,5.00
2019-03-12T10:16:03.726Z,2.07
2019-03-12T10:18:54.648Z,2.50
2019-03-12T10:21:50.060Z,5.43
2019-03-12T10:24:34.803Z,3.73
2019-03-12T10:27:18.360Z,4.33
2019-03-12T10:30:00.501Z,2.17
2019-03-12T10:32:37.660Z,5.57
2019-03-12T10:35:28.977Z,8.03
2019-03-12T10:38:34.726Z,4.47
2019-03-12T10:45:01.829Z,8.73
2019-03-12T10:47:31.928Z,1.90
2019-03-12T10:50:01.464Z,3.33
2019-03-12T10:52:30.974Z,2.93
2019-03-12T10:55:12.520Z,1.60
2019-03-12T10:57:31.966Z,4.37
2019-03-12T11:00:01.488Z,4.60
2019-03-12T11:02:31.701Z,3.50
2019-03-12T11:05:01.107Z,3.53
2019-03-12T11:07:30.603Z,2.33
2019-03-12T11:10:00.073Z,3.87
2019-03-12T11:12:29.550Z,2.83
2019-03-12T11:14:59.644Z,3.80
2019-03-12T11:17:29.240Z,6.30
2019-03-12T11:23:03.923Z,4.73
2019-03-12T11:25:33.433Z,3.40
2019-03-12T11:28:02.907Z,4.47
2019-03-12T11:30:32.770Z,4.87
2019-03-12T11:33:02.215Z,2.63
2019-03-12T11:35:38.730Z,1.80
2019-03-12T11:38:02.940Z,4.60
2019-03-12T11:40:33.057Z,1.70
2019-03-12T11:43:02.823Z,8.10
2019-03-12T11:45:36.694Z,5.90
2019-03-12T11:48:03.947Z,3.20
2019-03-12T11:50:33.550Z,4.57
2019-03-12T11:53:03.351Z,6.00
2019-03-12T11:55:32.757Z,3.40
2019-03-12T11:58:02.245Z,3.57
2019-03-12T12:00:37.084Z,4.43
2019-03-12T12:03:06.840Z,5.07
2019-03-12T12:05:36.256Z,2.27
2019-03-12T12:08:05.834Z,5.17
2019-03-12T12:10:35.346Z,3.00
2019-03-12T12:13:04.990Z,5.67
2019-03-12T12:15:35.113Z,4.63
2019-03-12T12:18:04.816Z,3.40
2019-03-12T12:20:34.304Z,2.83
2019-03-12T12:23:03.875Z,3.00
2019-03-12T12:25:33.267Z,4.57
2019-03-12T12:28:02.666Z,3.27
2019-03-12T12:30:32.352Z,4.00
2019-03-12T12:33:01.830Z,4.87
2019-03-12T12:35:31.244Z,5.20
2019-03-12T12:38:00.734Z,3.50
2019-03-12T12:40:30.239Z,3.83
2019-03-12T12:42:59.708Z,4.50
2019-03-12T12:45:29.230Z,1.67
2019-03-12T12:47:58.764Z,4.03
2019-03-12T12:50:28.396Z,1.60
2019-03-12T12:52:58.125Z,3.83
2019-03-12T12:55:27.608Z,6.73
2019-03-12T12:57:57.030Z,13.33
2019-03-12T13:00:27.133Z,4.83
2019-03-12T13:02:56.612Z,3.47
2019-03-12T13:05:26.137Z,2.63
2019-03-12T13:07:55.857Z,13.47
2019-03-12T13:10:25.703Z,6.53
2019-03-12T13:12:55.142Z,5.20
2019-03-12T13:15:25.126Z,4.87
2019-03-12T13:17:56.870Z,9.37
2019-03-12T13:20:26.259Z,5.50
2019-03-12T13:22:55.759Z,3.57
2019-03-12T13:25:25.402Z,2.37
2019-03-12T13:27:54.894Z,3.23
2019-03-12T13:30:24.559Z,5.00
2019-03-12T13:32:53.968Z,5.80
2019-03-12T13:35:23.564Z,3.10
2019-03-12T13:37:53.256Z,5.50
2019-03-12T13:40:22.878Z,4.20
2019-03-12T13:42:52.446Z,3.67
2019-03-12T13:45:22.403Z,6.90
2019-03-12T13:47:51.838Z,3.77
2019-03-12T13:50:21.563Z,1.60
2019-03-12T13:52:51.210Z,1.87
2019-03-12T13:55:20.785Z,3.20
2019-03-12T13:57:50.764Z,2.43
2019-03-12T14:00:21.310Z,6.73
2019-03-12T14:02:50.949Z,4.83
2019-03-12T14:05:20.432Z,4.73
2019-03-12T14:07:49.932Z,2.70
2019-03-12T14:10:21.265Z,3.17
2019-03-12T14:12:51.501Z,4.37
2019-03-12T14:15:29.330Z,5.10
2019-03-12T14:17:58.857Z,4.37
2019-03-12T14:20:42.833Z,3.30
2019-03-12T14:23:14.160Z,3.00
2019-03-12T14:25:43.910Z,9.57
2019-03-12T14:28:13.549Z,5.67
2019-03-12T14:30:43.265Z,6.47
2019-03-12T14:33:12.876Z,7.13
2019-03-12T14:35:51.600Z,6.30
2019-03-12T14:38:13.752Z,7.30
2019-03-12T14:40:43.378Z,7.57
2019-03-12T14:43:12.928Z,10.13
2019-03-12T14:45:47.713Z,9.20
2019-03-12T14:48:52.467Z,8.73
2019-03-12T14:52:03.587Z,8.43
2019-03-12T14:54:33.237Z,9.17
2019-03-12T14:57:02.784Z,10.37
2019-03-12T14:59:32.316Z,7.40
2019-03-12T15:02:01.763Z,6.27
2019-03-12T15:04:31.211Z,5.50
2019-03-12T15:07:00.813Z,6.47
2019-03-12T15:09:30.271Z,10.33
2019-03-12T15:11:59.789Z,6.30
2019-03-12T15:14:29.365Z,7.10
2019-03-12T15:16:58.839Z,7.33
2019-03-12T15:19:28.240Z,9.87
2019-03-12T15:21:57.731Z,7.43
2019-03-12T15:24:27.451Z,6.80
2019-03-12T15:26:56.856Z,7.57
2019-03-12T15:29:26.309Z,7.40
2019-03-12T15:32:04.030Z,8.73
2019-03-12T15:34:27.244Z,8.80
2019-03-12T15:36:56.642Z,13.13
2019-03-12T15:39:26.123Z,11.20
2019-03-12T15:41:55.671Z,9.93
2019-03-12T15:44:25.179Z,12.07
2019-03-12T15:46:54.825Z,12.33
2019-03-12T15:49:24.378Z,11.93
2019-03-12T15:51:53.863Z,13.87
2019-03-12T15:54:23.323Z,11.53
2019-03-12T15:56:55.262Z,14.63
2019-03-12T15:59:24.790Z,17.17
2019-03-12T16:01:54.186Z,19.80
2019-03-12T16:04:23.652Z,19.13
2019-03-12T16:07:01.213Z,17.13
2019-03-12T16:09:24.408Z,15.00
2019-03-12T16:11:53.869Z,35.10
2019-03-12T16:14:23.304Z,33.63
2019-03-12T16:16:52.813Z,23.70
2019-03-12T16:19:22.355Z,15.80
2019-03-12T16:21:51.787Z,19.40
2019-03-12T16:24:21.227Z,18.60
2019-03-12T16:26:50.769Z,14.70
2019-03-12T16:29:20.280Z,16.23
2019-03-12T16:31:49.814Z,18.37
2019-03-12T16:34:19.346Z,18.67
2019-03-12T16:36:48.816Z,19.73
2019-03-12T16:39:18.251Z,16.23
2019-03-12T16:41:47.857Z,11.87
2019-03-12T16:44:17.395Z,14.80
2019-03-12T16:46:46.826Z,15.13
2019-03-12T16:49:16.294Z,11.97
2019-03-12T16:51:45.854Z,12.33
2019-03-12T16:54:15.369Z,12.60
2019-03-12T16:56:45.822Z,15.70
2019-03-12T16:59:15.485Z,13.57
2019-03-12T17:01:44.980Z,12.80
2019-03-12T17:04:14.725Z,13.27
2019-03-12T17:06:44.226Z,16.00
2019-03-12T17:09:13.797Z,16.00
2019-03-12T17:11:43.273Z,16.60
2019-03-12T17:14:12.707Z,17.07
2019-03-12T17:16:42.234Z,14.90
2019-03-12T17:19:11.793Z,14.87
2019-03-12T17:21:41.203Z,11.43
2019-03-12T17:24:10.640Z,11.10
2019-03-12T17:26:40.191Z,8.37
2019-03-12T17:29:09.680Z,11.33
2019-03-12T17:31:39.114Z,9.23
2019-03-12T17:34:08.787Z,8.60
2019-03-12T17:36:38.291Z,9.00
2019-03-12T17:39:08.604Z,8.40
2019-03-12T17:41:38.041Z,10.90
2019-03-12T17:44:07.494Z,12.37
2019-03-12T17:46:37.138Z,9.43
2019-03-12T17:49:06.669Z,12.47
2019-03-12T17:51:36.078Z,14.93
2019-03-12T17:54:05.600Z,23.03
2019-03-12T17:56:35.198Z,30.23
2019-03-12T17:59:04.732Z,33.47
2019-03-12T18:01:34.159Z,25.73
2019-03-12T18:04:03.587Z,17.03
2019-03-12T18:06:35.100Z,19.50
2019-03-12T18:09:08.576Z,17.93
2019-03-12T18:11:36.926Z,24.27
2019-03-12T18:14:06.340Z,17.53
2019-03-12T18:16:40.891Z,20.13
2019-03-12T18:19:07.137Z,19.57
2019-03-12T18:21:36.523Z,15.30
2019-03-12T18:24:06.027Z,15.40
2019-03-12T18:26:35.720Z,17.87
2019-03-12T18:29:05.258Z,16.27
2019-03-12T18:31:34.759Z,11.77
2019-03-12T18:34:04.291Z,13.33
2019-03-12T18:36:34.185Z,10.20
2019-03-12T18:39:03.799Z,13.53
2019-03-12T18:41:33.347Z,10.30
2019-03-12T18:44:03.237Z,15.27
2019-03-12T18:46:32.718Z,17.77
2019-03-12T18:49:02.659Z,23.83
2019-03-12T18:51:32.604Z,17.57
2019-03-12T18:54:02.384Z,14.40
2019-03-12T18:56:31.993Z,14.63
2019-03-12T18:59:01.420Z,28.57
2019-03-12T19:01:30.951Z,26.13
2019-03-12T19:04:00.526Z,22.30
2019-03-12T19:06:29.967Z,12.67
2019-03-12T19:08:59.469Z,11.03
2019-03-12T19:11:28.917Z,9.10
2019-03-12T19:13:58.334Z,9.67
2019-03-12T19:16:27.872Z,12.07
2019-03-12T19:18:57.659Z,26.20
2019-03-12T19:21:27.109Z,13.20
2019-03-12T19:23:56.539Z,28.33
2019-03-12T19:26:26.206Z,53.97
2019-03-12T19:28:55.717Z,31.50
2019-03-12T19:31:44.171Z,31.90
2019-03-12T19:34:17.351Z,26.37
2019-03-12T19:36:47.025Z,20.30
2019-03-12T19:39:19.046Z,31.37
2019-03-12T19:41:48.567Z,18.23
2019-03-12T19:44:18.329Z,18.13
2019-03-12T19:46:47.897Z,12.57
2019-03-12T19:49:17.330Z,12.17
2019-03-12T19:51:46.863Z,9.37
2019-03-12T19:54:17.875Z,11.17
2019-03-12T19:56:47.483Z,10.47
2019-03-12T19:59:22.785Z,11.37
2019-03-12T20:01:56.842Z,10.40
2019-03-12T20:04:26.411Z,11.20
2019-03-12T20:06:55.835Z,11.93
2019-03-12T20:10:09.337Z,12.50
2019-03-12T20:13:34.837Z,13.70
2019-03-12T20:17:12.539Z,12.43
2019-03-12T20:20:23.952Z,17.17
2019-03-12T20:23:25.494Z,15.80
2019-03-12T20:26:30.633Z,13.17
2019-03-12T20:29:54.660Z,23.63
2019-03-12T20:33:15.686Z,18.17
2019-03-12T20:36:28.240Z,19.03
2019-03-12T20:39:33.058Z,15.07
2019-03-12T20:42:38.473Z,16.03
2019-03-12T20:45:51.736Z,17.93
2019-03-12T20:48:51.121Z,16.33
2019-03-12T20:51:57.253Z,17.20
2019-03-12T20:55:07.646Z,16.90
2019-03-12T20:58:19.852Z,16.53
2019-03-12T21:01:33.450Z,22.40
2019-03-12T21:04:43.513Z,21.80
2019-03-12T21:07:49.649Z,22.90
2019-03-12T21:10:50.638Z,15.20
2019-03-12T21:14:19.222Z,20.40
2019-03-12T21:17:28.344Z,20.67
2019-03-12T21:20:35.646Z,17.77
2019-03-12T21:23:23.345Z,14.93
2019-03-12T21:26:16.668Z,15.17
2019-03-12T21:29:08.394Z,16.23
2019-03-12T21:31:37.947Z,19.40
2019-03-12T21:34:07.357Z,14.57
2019-03-12T21:36:36.793Z,18.47
2019-03-12T21:39:09.264Z,18.63
2019-03-12T21:41:38.811Z,18.23
2019-03-12T21:44:08.416Z,16.30
2019-03-12T21:46:38.066Z,16.80
2019-03-12T21:49:07.763Z,16.83
2019-03-12T21:51:37.289Z,18.00
2019-03-12T21:54:06.750Z,15.80
2019-03-12T21:56:36.201Z,16.70
2019-03-12T21:59:05.955Z,18.43
2019-03-12T22:01:35.592Z,20.13
2019-03-12T22:04:05.025Z,17.57
2019-03-12T22:06:34.818Z,16.33
2019-03-12T22:09:05.157Z,16.23
2019-03-12T22:11:34.633Z,16.83
2019-03-12T22:14:04.130Z,17.77
2019-03-12T22:16:33.545Z,20.07
2019-03-12T22:19:02.991Z,19.90
2019-03-12T22:21:47.876Z,18.27
2019-03-12T22:24:20.231Z,15.20
2019-03-12T22:26:49.654Z,15.93
2019-03-12T22:29:19.122Z,19.83
2019-03-12T22:31:48.627Z,17.47
2019-03-12T22:34:18.076Z,15.47
2019-03-12T22:36:47.694Z,14.20
2019-03-12T22:39:17.113Z,14.43
2019-03-12T22:41:46.534Z,13.50
2019-03-12T22:44:16.003Z,14.33
2019-03-12T22:46:45.427Z,13.70
2019-03-12T22:49:14.870Z,11.87
2019-03-12T22:51:44.345Z,12.60
2019-03-12T22:54:13.770Z,11.67
2019-03-12T22:56:43.241Z,19.63
2019-03-12T22:59:12.713Z,13.93
2019-03-12T23:01:42.189Z,16.43
2019-03-12T23:04:11.715Z,17.53
2019-03-12T23:06:41.470Z,14.73
2019-03-12T23:09:10.924Z,22.93
2019-03-12T23:11:40.484Z,18.63
2019-03-12T23:14:10.023Z,25.00
2019-03-12T23:16:39.504Z,23.93
2019-03-12T23:19:09.022Z,26.23
2019-03-12T23:21:38.448Z,33.77
2019-03-12T23:24:08.182Z,19.27
2019-03-12T23:26:37.668Z,23.23
2019-03-12T23:29:07.156Z,19.93
2019-03-12T23:31:36.627Z,21.07
2019-03-12T23:34:06.064Z,16.40
2019-03-12T23:36:35.509Z,18.27
2019-03-12T23:39:06.551Z,15.43
2019-03-12T23:41:36.079Z,16.40
2019-03-12T23:44:05.617Z,14.43
2019-03-12T23:46:35.251Z,11.90
2019-03-12T23:49:04.976Z,13.10
2019-03-12T23:51:34.607Z,11.80
2019-03-12T23:54:04.149Z,13.57
2019-03-12T23:56:33.635Z,18.30
2019-03-12T23:59:03.168Z,11.80
